createdAt,value
2023-04-14T00:00:16.317Z,2.50
2023-04-14T00:02:44.601Z,2.28
2023-04-14T00:05:12.986Z,2.33
2023-04-14T00:07:43.227Z,2.38
2023-04-14T00:10:12.187Z,2.30
2023-04-14T00:12:40.570Z,2.45
2023-04-14T00:15:09.840Z,2.30
2023-04-14T00:17:38.083Z,2.58
2023-04-14T00:20:07.212Z,2.30
2023-04-14T00:22:36.141Z,2.05
2023-04-14T00:25:06.619Z,2.72
2023-04-14T00:27:34.986Z,1.90
2023-04-14T00:30:04.027Z,2.10
2023-04-14T00:32:31.943Z,2.22
2023-04-14T00:35:03.429Z,2.28
2023-04-14T00:37:32.383Z,2.25
2023-04-14T00:40:00.506Z,2.30
2023-04-14T00:42:29.979Z,2.30
2023-04-14T00:44:58.334Z,2.25
2023-04-14T00:47:27.991Z,2.13
2023-04-14T00:52:26.990Z,2.08
2023-04-14T00:54:55.006Z,2.22
2023-04-14T00:57:23.478Z,2.10
2023-04-14T00:59:54.125Z,2.13
2023-04-14T01:02:22.508Z,2.33
2023-04-14T01:04:54.613Z,2.15
2023-04-14T01:07:24.852Z,2.08
2023-04-14T01:09:54.350Z,2.35
2023-04-14T01:12:35.018Z,2.03
2023-04-14T01:15:13.375Z,2.28
2023-04-14T01:17:47.460Z,2.40
2023-04-14T01:20:24.285Z,1.92
2023-04-14T01:22:59.560Z,2.38
2023-04-14T01:25:55.979Z,2.03
2023-04-14T01:28:44.360Z,2.33
2023-04-14T01:31:25.206Z,2.40
2023-04-14T01:33:59.379Z,2.20
2023-04-14T01:36:35.867Z,2.50
2023-04-14T01:39:10.153Z,1.70
2023-04-14T01:41:40.530Z,1.98
2023-04-14T01:44:11.875Z,2.15
2023-04-14T01:46:44.176Z,2.67
2023-04-14T01:49:14.183Z,2.00
2023-04-14T01:51:44.929Z,2.45
2023-04-14T01:54:16.212Z,2.60
2023-04-14T01:56:45.124Z,2.83
2023-04-14T01:59:14.791Z,2.50
2023-04-14T02:01:45.909Z,2.78
2023-04-14T02:04:15.675Z,3.03
2023-04-14T02:06:44.489Z,3.00
2023-04-14T02:09:14.175Z,3.20
2023-04-14T02:14:13.038Z,3.35
2023-04-14T02:16:42.837Z,3.65
2023-04-14T02:19:13.372Z,3.33
2023-04-14T02:21:43.347Z,3.55
2023-04-14T02:24:11.431Z,3.67
2023-04-14T02:26:46.057Z,3.20
2023-04-14T02:29:16.521Z,3.40
2023-04-14T02:31:47.781Z,3.42
2023-04-14T02:34:24.042Z,3.70
2023-04-14T02:36:55.896Z,4.10
2023-04-14T02:39:31.249Z,3.88
2023-04-14T02:42:06.447Z,4.30
2023-04-14T02:44:40.067Z,3.38
2023-04-14T02:47:11.928Z,3.63
2023-04-14T02:49:44.500Z,3.50
2023-04-14T02:52:18.320Z,3.75
2023-04-14T02:54:49.238Z,3.22
2023-04-14T02:57:17.582Z,3.50
2023-04-14T02:59:48.607Z,3.70
2023-04-14T03:02:18.102Z,3.83
2023-04-14T03:04:47.887Z,3.40
2023-04-14T03:09:44.662Z,3.88
2023-04-14T03:12:14.773Z,3.67
2023-04-14T03:14:44.729Z,3.70
2023-04-14T03:17:14.845Z,4.32
2023-04-14T03:19:48.724Z,3.90
2023-04-14T03:22:19.730Z,3.60
2023-04-14T03:24:48.907Z,3.42
2023-04-14T03:27:22.076Z,3.55
2023-04-14T03:29:55.743Z,4.05
2023-04-14T03:32:26.918Z,3.72
2023-04-14T03:35:01.945Z,3.40
2023-04-14T03:37:34.676Z,3.45
2023-04-14T03:40:06.827Z,4.15
2023-04-14T03:42:36.860Z,3.38
2023-04-14T03:45:05.724Z,3.20
2023-04-14T03:47:34.404Z,3.22
2023-04-14T03:50:06.177Z,3.03
2023-04-14T03:52:38.525Z,3.25
2023-04-14T03:55:09.880Z,3.45
2023-04-14T03:57:41.561Z,3.05
2023-04-14T04:00:11.490Z,3.03
2023-04-14T04:02:40.724Z,3.55
2023-04-14T04:05:11.721Z,3.25
2023-04-14T04:07:42.699Z,3.60
2023-04-14T04:10:14.323Z,3.30
2023-04-14T04:12:44.300Z,3.25
2023-04-14T04:15:12.911Z,3.80
2023-04-14T04:17:43.225Z,3.60
2023-04-14T04:20:15.670Z,3.28
2023-04-14T04:22:47.473Z,3.47
2023-04-14T04:25:16.798Z,3.13
2023-04-14T04:27:45.660Z,3.30
2023-04-14T04:30:17.108Z,3.57
2023-04-14T04:32:45.650Z,3.38
2023-04-14T04:35:33.706Z,3.40
2023-04-14T04:38:03.986Z,3.45
2023-04-14T04:40:38.179Z,3.67
2023-04-14T04:43:06.387Z,3.80
2023-04-14T04:46:01.871Z,3.75
2023-04-14T04:48:30.039Z,3.78
2023-04-14T04:50:57.931Z,4.03
2023-04-14T04:53:27.939Z,4.00
2023-04-14T04:55:57.143Z,4.18
2023-04-14T04:58:25.193Z,4.00
2023-04-14T05:00:55.261Z,4.50
2023-04-14T05:03:23.473Z,4.25
2023-04-14T05:05:51.781Z,4.05
2023-04-14T05:08:20.382Z,4.10
2023-04-14T05:10:49.775Z,4.13
2023-04-14T05:13:17.937Z,4.20
2023-04-14T05:15:46.543Z,4.43
2023-04-14T05:18:14.737Z,4.43
2023-04-14T05:20:43.096Z,4.18
2023-04-14T05:23:11.855Z,4.05
2023-04-14T05:25:39.946Z,4.10
2023-04-14T05:28:09.737Z,3.83
2023-04-14T05:30:38.220Z,4.30
2023-04-14T05:33:06.195Z,4.30
2023-04-14T05:35:34.488Z,3.53
2023-04-14T05:38:02.962Z,4.32
2023-04-14T05:40:30.941Z,3.85
2023-04-14T05:42:59.170Z,4.28
2023-04-14T05:45:29.286Z,3.50
2023-04-14T05:47:57.302Z,3.85
2023-04-14T05:50:26.066Z,3.90
2023-04-14T05:52:54.597Z,3.17
2023-04-14T05:55:23.161Z,3.30
2023-04-14T05:57:51.338Z,3.75
2023-04-14T06:00:20.645Z,3.72
2023-04-14T06:02:50.230Z,3.50
2023-04-14T06:05:18.732Z,3.80
2023-04-14T06:07:47.647Z,3.92
2023-04-14T06:10:16.023Z,3.60
2023-04-14T06:12:44.739Z,3.42
2023-04-14T06:15:13.512Z,3.40
2023-04-14T06:17:41.930Z,4.10
2023-04-14T06:20:12.702Z,3.90
2023-04-14T06:22:41.452Z,3.72
2023-04-14T06:25:11.128Z,3.43
2023-04-14T06:27:41.621Z,3.58
2023-04-14T06:30:10.699Z,3.27
2023-04-14T06:32:38.837Z,3.20
2023-04-14T06:35:16.433Z,3.35
2023-04-14T06:37:52.109Z,3.22
2023-04-14T06:40:20.872Z,3.28
2023-04-14T06:42:49.042Z,3.00
2023-04-14T06:45:17.308Z,3.25
2023-04-14T06:47:45.947Z,3.42
2023-04-14T06:50:14.589Z,3.40
2023-04-14T06:52:42.849Z,3.78
2023-04-14T06:55:12.639Z,3.20
2023-04-14T06:57:41.464Z,2.88
2023-04-14T07:00:10.717Z,2.80
2023-04-14T07:02:39.384Z,3.15
2023-04-14T07:05:08.460Z,3.47
2023-04-14T07:07:37.241Z,3.20
2023-04-14T07:10:06.450Z,3.03
2023-04-14T07:12:35.794Z,2.80
2023-04-14T07:15:03.765Z,3.30
2023-04-14T07:17:32.554Z,2.67
2023-04-14T07:20:00.528Z,3.13
2023-04-14T07:22:28.669Z,3.08
2023-04-14T07:24:57.377Z,2.60
2023-04-14T07:27:28.429Z,2.47
2023-04-14T07:29:59.063Z,2.70
2023-04-14T07:32:27.066Z,2.50
2023-04-14T07:34:55.882Z,2.50
2023-04-14T07:37:26.338Z,2.67
2023-04-14T07:39:54.471Z,2.38
2023-04-14T07:42:22.492Z,2.40
2023-04-14T07:44:50.882Z,2.47
2023-04-14T07:47:20.461Z,2.83
2023-04-14T07:52:17.447Z,2.08
2023-04-14T07:54:45.908Z,1.93
2023-04-14T07:57:14.211Z,2.15
2023-04-14T07:59:43.595Z,1.88
2023-04-14T08:02:11.867Z,2.00
2023-04-14T08:04:41.357Z,2.13
2023-04-14T08:07:10.043Z,1.90
2023-04-14T08:09:38.157Z,1.77
2023-04-14T08:12:06.437Z,1.92
2023-04-14T08:14:35.655Z,1.52
2023-04-14T08:17:03.644Z,2.00
2023-04-14T08:19:33.916Z,1.80
2023-04-14T08:22:03.863Z,2.05
2023-04-14T08:24:32.085Z,1.73
2023-04-14T08:27:02.015Z,1.90
2023-04-14T08:29:30.823Z,1.92
2023-04-14T08:31:59.068Z,1.70
2023-04-14T08:34:28.559Z,1.42
2023-04-14T08:36:58.130Z,1.70
2023-04-14T08:39:27.978Z,1.35
2023-04-14T08:41:58.892Z,2.10
2023-04-14T08:44:26.904Z,1.40
2023-04-14T08:46:57.030Z,1.58
2023-04-14T08:49:33.726Z,1.50
2023-04-14T08:52:04.502Z,1.42
2023-04-14T08:54:35.034Z,1.65
2023-04-14T08:57:05.016Z,1.60
2023-04-14T08:59:33.447Z,1.75
2023-04-14T09:02:02.743Z,1.50
2023-04-14T09:04:30.950Z,1.70
2023-04-14T09:06:59.564Z,1.77
2023-04-14T09:09:29.179Z,1.70
2023-04-14T09:14:28.033Z,1.75
2023-04-14T09:16:57.253Z,1.60
2023-04-14T09:19:27.153Z,1.52
2023-04-14T09:21:56.244Z,1.60
2023-04-14T09:24:31.818Z,1.50
2023-04-14T09:27:03.627Z,1.58
2023-04-14T09:29:33.415Z,1.65
2023-04-14T09:32:01.511Z,1.55
2023-04-14T09:34:29.761Z,1.60
2023-04-14T09:37:03.463Z,1.88
2023-04-14T09:39:32.685Z,1.52
2023-04-14T09:42:02.847Z,1.98
2023-04-14T09:44:31.171Z,1.88
2023-04-14T09:47:00.800Z,1.90
2023-04-14T09:52:04.330Z,2.00
2023-04-14T09:54:32.445Z,2.10
2023-04-14T09:57:02.735Z,2.10
2023-04-14T09:59:35.529Z,1.65
2023-04-14T10:02:07.368Z,1.83
2023-04-14T10:04:37.067Z,1.65
2023-04-14T10:09:39.032Z,1.52
2023-04-14T10:12:13.453Z,1.90
2023-04-14T10:14:42.693Z,1.73
2023-04-14T10:17:11.432Z,1.60
2023-04-14T10:19:39.824Z,1.30
2023-04-14T10:22:08.219Z,1.65
2023-04-14T10:24:36.776Z,1.70
2023-04-14T10:27:06.580Z,1.20
2023-04-14T10:29:36.117Z,1.60
2023-04-14T10:34:34.771Z,1.60
2023-04-14T10:37:15.741Z,1.65
2023-04-14T10:39:44.424Z,1.88
2023-04-14T10:42:12.242Z,1.50
2023-04-14T10:44:41.560Z,1.42
2023-04-14T10:47:10.417Z,1.50
2023-04-14T10:49:40.284Z,1.13
2023-04-14T10:52:33.661Z,1.17
2023-04-14T10:55:08.861Z,1.30
2023-04-14T10:57:43.629Z,1.45
2023-04-14T11:00:31.818Z,1.20
2023-04-14T11:03:05.025Z,1.30
2023-04-14T11:05:34.082Z,1.42
2023-04-14T11:08:03.379Z,1.25
2023-04-14T11:10:34.864Z,1.27
2023-04-14T11:13:04.520Z,1.50
2023-04-14T11:15:53.041Z,1.58
2023-04-14T11:18:32.361Z,1.33
2023-04-14T11:21:05.322Z,1.00
2023-04-14T11:23:34.172Z,1.23
2023-04-14T11:26:02.397Z,1.30
2023-04-14T11:28:31.792Z,1.25
2023-04-14T11:31:02.299Z,1.40
2023-04-14T11:33:31.713Z,1.08
2023-04-14T11:36:00.215Z,1.25
2023-04-14T11:38:28.859Z,0.80
2023-04-14T11:40:57.538Z,1.17
2023-04-14T11:43:26.176Z,0.90
2023-04-14T11:45:54.841Z,0.97
2023-04-14T11:48:24.376Z,0.97
2023-04-14T11:53:21.269Z,0.90
2023-04-14T11:55:50.560Z,0.70
2023-04-14T11:58:22.689Z,1.00
2023-04-14T12:00:53.075Z,0.90
2023-04-14T12:03:27.790Z,0.95
2023-04-14T12:08:53.053Z,0.98
2023-04-14T12:11:21.571Z,1.00
2023-04-14T12:13:51.135Z,0.85
2023-04-14T12:18:49.166Z,0.77
2023-04-14T12:21:21.313Z,1.02
2023-04-14T12:23:50.284Z,0.95
2023-04-14T12:26:19.558Z,1.13
2023-04-14T12:28:56.717Z,1.08
2023-04-14T12:31:30.101Z,0.90
2023-04-14T12:34:04.148Z,1.00
2023-04-14T12:36:48.801Z,1.63
2023-04-14T12:39:18.318Z,1.30
2023-04-14T12:41:46.982Z,1.20
2023-04-14T12:44:16.749Z,0.70
2023-04-14T12:46:50.341Z,0.90
2023-04-14T12:49:33.915Z,0.82
2023-04-14T12:52:02.509Z,1.00
2023-04-14T12:54:48.871Z,1.10
2023-04-14T12:57:17.405Z,1.13
2023-04-14T12:59:45.933Z,1.10
2023-04-14T13:02:14.336Z,0.90
2023-04-14T13:04:44.705Z,0.80
2023-04-14T13:07:12.814Z,1.00
2023-04-14T13:09:42.656Z,0.80
2023-04-14T13:12:10.988Z,1.00
2023-04-14T13:14:39.422Z,0.90
2023-04-14T13:17:07.964Z,1.30
2023-04-14T13:19:36.520Z,0.93
2023-04-14T13:22:06.216Z,1.15
2023-04-14T13:24:34.416Z,1.20
2023-04-14T13:27:03.167Z,0.90
2023-04-14T13:29:32.983Z,1.60
2023-04-14T13:32:01.109Z,0.93
2023-04-14T13:34:29.886Z,1.40
2023-04-14T13:36:58.150Z,1.58
2023-04-14T13:39:28.028Z,1.15
2023-04-14T13:41:56.218Z,1.17
2023-04-14T13:44:24.284Z,1.17
2023-04-14T13:46:52.763Z,1.23
2023-04-14T13:49:20.942Z,1.40
2023-04-14T13:51:48.745Z,1.35
2023-04-14T13:54:16.831Z,0.95
2023-04-14T13:56:46.693Z,0.95
2023-04-14T13:59:16.223Z,0.95
2023-04-14T14:01:44.417Z,1.10
2023-04-14T14:04:12.894Z,1.00
2023-04-14T14:06:41.319Z,1.00
2023-04-14T14:09:09.655Z,0.90
2023-04-14T14:11:42.434Z,0.90
2023-04-14T14:14:12.892Z,1.00
2023-04-14T14:16:41.130Z,1.15
2023-04-14T14:19:11.388Z,0.93
2023-04-14T14:21:39.580Z,1.00
2023-04-14T14:24:07.753Z,1.20
2023-04-14T14:26:36.101Z,0.98
2023-04-14T14:29:04.431Z,1.00
2023-04-14T14:31:34.653Z,0.95
2023-04-14T14:34:03.126Z,0.93
2023-04-14T14:36:31.743Z,0.80
2023-04-14T14:38:59.725Z,0.90
2023-04-14T14:41:28.330Z,0.73
2023-04-14T14:43:56.567Z,1.00
2023-04-14T14:46:24.832Z,1.05
2023-04-14T14:48:54.773Z,0.85
2023-04-14T14:51:24.092Z,1.00
2023-04-14T14:53:57.169Z,0.90
2023-04-14T14:56:29.874Z,0.85
2023-04-14T14:58:58.130Z,1.10
2023-04-14T15:01:26.413Z,1.10
2023-04-14T15:03:56.590Z,0.90
2023-04-14T15:06:24.669Z,0.75
2023-04-14T15:08:52.725Z,1.02
2023-04-14T15:11:21.553Z,1.00
2023-04-14T15:13:49.689Z,0.85
2023-04-14T15:16:17.820Z,1.25
2023-04-14T15:18:46.022Z,0.65
2023-04-14T15:21:15.508Z,1.20
2023-04-14T15:23:45.698Z,0.93
2023-04-14T15:26:14.620Z,1.02
2023-04-14T15:28:42.534Z,0.70
2023-04-14T15:31:10.675Z,1.02
2023-04-14T15:33:38.983Z,0.88
2023-04-14T15:36:07.996Z,0.80
2023-04-14T15:38:39.317Z,0.93
2023-04-14T15:41:07.455Z,0.82
2023-04-14T15:43:35.490Z,0.82
2023-04-14T15:46:04.216Z,0.80
2023-04-14T15:48:32.355Z,0.93
2023-04-14T15:51:00.532Z,0.73
2023-04-14T15:53:28.882Z,0.90
2023-04-14T15:55:58.597Z,0.80
2023-04-14T15:58:27.411Z,1.02
2023-04-14T16:00:55.788Z,0.82
2023-04-14T16:03:24.253Z,1.02
2023-04-14T16:06:02.274Z,1.00
2023-04-14T16:08:30.522Z,0.75
2023-04-14T16:11:00.676Z,0.80
2023-04-14T16:13:29.094Z,0.77
2023-04-14T16:15:58.530Z,1.00
2023-04-14T16:18:26.724Z,0.82
2023-04-14T16:20:56.154Z,0.82
2023-04-14T16:23:24.548Z,1.08
2023-04-14T16:25:52.456Z,0.90
2023-04-14T16:28:23.373Z,1.17
2023-04-14T16:30:51.580Z,0.88
2023-04-14T16:33:19.489Z,0.90
2023-04-14T16:35:47.767Z,0.90
2023-04-14T16:38:15.913Z,1.00
2023-04-14T16:40:44.479Z,1.33
2023-04-14T16:43:14.377Z,0.93
2023-04-14T16:45:43.743Z,1.00
2023-04-14T16:48:11.750Z,0.90
2023-04-14T16:50:40.999Z,0.82
2023-04-14T16:53:09.064Z,1.17
2023-04-14T16:55:37.537Z,0.70
2023-04-14T16:58:06.018Z,0.90
2023-04-14T17:00:34.503Z,0.90
2023-04-14T17:03:04.158Z,0.80
2023-04-14T17:05:32.867Z,0.90
2023-04-14T17:08:00.906Z,0.73
2023-04-14T17:10:29.774Z,1.10
2023-04-14T17:12:58.162Z,1.25
2023-04-14T17:15:25.973Z,0.90
2023-04-14T17:17:54.268Z,0.80
2023-04-14T17:20:24.329Z,0.68
2023-04-14T17:22:53.740Z,1.00
2023-04-14T17:25:22.753Z,0.77
2023-04-14T17:27:51.162Z,0.80
2023-04-14T17:30:19.772Z,0.70
2023-04-14T17:32:48.871Z,0.80
2023-04-14T17:35:17.730Z,0.70
2023-04-14T17:37:47.487Z,0.80
2023-04-14T17:40:15.922Z,1.00
2023-04-14T17:42:44.229Z,0.80
2023-04-14T17:45:13.319Z,1.00
2023-04-14T17:47:41.715Z,1.00
2023-04-14T17:50:11.448Z,1.05
2023-04-14T17:52:39.816Z,1.00
2023-04-14T17:55:10.608Z,1.00
2023-04-14T17:57:39.798Z,1.00
2023-04-14T18:00:09.977Z,1.00
2023-04-14T18:02:39.709Z,1.23
2023-04-14T18:05:08.673Z,1.30
2023-04-14T18:07:38.053Z,1.13
2023-04-14T18:10:08.246Z,0.98
2023-04-14T18:12:37.777Z,1.40
2023-04-14T18:15:06.584Z,1.08
2023-04-14T18:17:36.717Z,1.30
2023-04-14T18:20:06.128Z,1.10
2023-04-14T18:22:34.248Z,1.20
2023-04-14T18:25:02.531Z,1.20
2023-04-14T18:30:03.366Z,1.50
2023-04-14T18:32:31.998Z,1.20
2023-04-14T18:35:00.011Z,1.10
2023-04-14T18:37:28.267Z,1.13
2023-04-14T18:39:56.739Z,1.02
2023-04-14T18:42:24.855Z,1.20
2023-04-14T18:44:54.084Z,1.05
2023-04-14T18:47:23.362Z,1.20
2023-04-14T18:49:51.835Z,1.10
2023-04-14T18:52:20.302Z,1.02
2023-04-14T18:54:48.328Z,1.00
2023-04-14T18:57:16.491Z,1.05
2023-04-14T18:59:44.985Z,1.65
2023-04-14T19:02:13.863Z,0.98
2023-04-14T19:04:43.683Z,1.38
2023-04-14T19:07:11.992Z,1.80
2023-04-14T19:09:40.145Z,1.10
2023-04-14T19:12:15.538Z,1.30
2023-04-14T19:14:53.609Z,1.30
2023-04-14T19:17:21.288Z,1.13
2023-04-14T19:19:50.461Z,1.20
2023-04-14T19:22:18.571Z,1.20
2023-04-14T19:24:46.270Z,1.20
2023-04-14T19:27:13.968Z,1.13
2023-04-14T19:29:42.058Z,1.13
2023-04-14T19:32:09.790Z,1.30
2023-04-14T19:34:37.627Z,1.00
2023-04-14T19:37:06.787Z,1.10
2023-04-14T19:39:34.624Z,1.30
2023-04-14T19:42:03.254Z,1.50
2023-04-14T19:44:31.260Z,1.33
2023-04-14T19:46:59.014Z,1.42
2023-04-14T19:49:26.993Z,1.35
2023-04-14T19:51:55.022Z,1.13
2023-04-14T19:54:24.439Z,1.38
2023-04-14T19:56:52.268Z,1.52
2023-04-14T19:59:21.048Z,1.50
2023-04-14T20:01:51.510Z,1.37
2023-04-14T20:04:20.663Z,1.30
2023-04-14T20:06:48.693Z,1.60
2023-04-14T20:09:16.834Z,1.40
2023-04-14T20:11:46.132Z,1.30
2023-04-14T20:14:13.871Z,1.73
2023-04-14T20:16:42.634Z,1.42
2023-04-14T20:19:10.983Z,1.40
2023-04-14T20:21:39.596Z,1.50
2023-04-14T20:24:07.597Z,1.35
2023-04-14T20:26:35.496Z,1.25
2023-04-14T20:29:05.283Z,1.40
2023-04-14T20:31:33.195Z,1.60
2023-04-14T20:34:01.144Z,1.50
2023-04-14T20:36:31.569Z,1.52
2023-04-14T20:38:59.445Z,1.90
2023-04-14T20:41:27.516Z,1.92
2023-04-14T20:43:55.173Z,1.80
2023-04-14T20:46:24.450Z,1.73
2023-04-14T20:48:52.460Z,1.90
2023-04-14T20:51:20.176Z,1.90
2023-04-14T20:53:47.817Z,1.60
2023-04-14T20:56:15.906Z,1.58
2023-04-14T20:58:43.629Z,1.67
2023-04-14T21:01:11.357Z,2.17
2023-04-14T21:03:40.794Z,1.83
2023-04-14T21:06:08.549Z,2.10
2023-04-14T21:08:36.204Z,2.00
2023-04-14T21:11:16.990Z,2.20
2023-04-14T21:15:31.036Z,1.92
2023-04-14T21:16:35.272Z,2.10
2023-04-14T21:19:05.436Z,2.50
2023-04-14T21:21:34.170Z,2.47
2023-04-14T21:24:03.525Z,2.60
2023-04-14T21:26:31.286Z,3.05
2023-04-14T21:28:59.053Z,2.70
2023-04-14T21:31:27.586Z,2.13
2023-04-14T21:33:55.322Z,2.55
2023-04-14T21:36:24.450Z,2.70
2023-04-14T21:38:52.668Z,2.47
2023-04-14T21:41:20.909Z,2.08
2023-04-14T21:43:48.577Z,2.30
2023-04-14T21:46:16.713Z,1.85
2023-04-14T21:48:44.462Z,1.90
2023-04-14T21:53:42.461Z,1.58
2023-04-14T21:58:40.667Z,2.08
2023-04-14T22:01:10.186Z,1.60
2023-04-14T22:03:40.605Z,1.98
2023-04-14T22:06:10.308Z,2.00
2023-04-14T22:08:38.967Z,2.15
2023-04-14T22:11:08.506Z,2.00
2023-04-14T22:13:36.525Z,1.98
2023-04-14T22:16:04.253Z,2.05
2023-04-14T22:18:32.237Z,2.10
2023-04-14T22:21:00.268Z,1.90
2023-04-14T22:23:28.561Z,2.10
2023-04-14T22:25:56.354Z,1.95
2023-04-14T22:28:25.918Z,2.10
2023-04-14T22:30:53.754Z,1.50
2023-04-14T22:33:21.464Z,2.08
2023-04-14T22:35:51.001Z,2.20
2023-04-14T22:38:18.680Z,2.08
2023-04-14T22:40:46.607Z,1.80
2023-04-14T22:43:14.596Z,1.98
2023-04-14T22:45:43.677Z,1.73
2023-04-14T22:48:11.694Z,1.70
2023-04-14T22:50:40.466Z,1.90
2023-04-14T22:53:08.281Z,2.10
2023-04-14T22:55:36.144Z,2.15
2023-04-14T22:58:04.357Z,2.10
2023-04-14T23:00:32.083Z,1.92
2023-04-14T23:03:01.185Z,2.00
2023-04-14T23:05:29.876Z,2.17
2023-04-14T23:07:57.547Z,1.92
2023-04-14T23:10:25.440Z,2.00
2023-04-14T23:12:53.376Z,2.10
2023-04-14T23:15:21.061Z,2.20
2023-04-14T23:17:48.951Z,2.03
2023-04-14T23:20:18.198Z,1.90
2023-04-14T23:22:45.898Z,2.05
2023-04-14T23:25:13.750Z,2.10
2023-04-14T23:27:41.769Z,1.75
2023-04-14T23:30:10.575Z,2.00
2023-04-14T23:32:38.343Z,2.15
2023-04-14T23:35:07.515Z,1.70
2023-04-14T23:37:37.189Z,1.80
2023-04-14T23:42:34.851Z,1.95
2023-04-14T23:45:02.615Z,2.20
2023-04-14T23:47:30.617Z,1.92
2023-04-14T23:49:58.661Z,1.98
2023-04-14T23:52:27.034Z,1.90
2023-04-14T23:54:56.400Z,1.98
2023-04-14T23:57:24.781Z,1.73
2023-04-14T23:59:52.902Z,2.15
